Time;durP1;ratioP1;P1;durP2;ratioP2;P2;SDS_P1;SDS_P2;PMS_P1;PMS_P2;Temp;Humidity;BMP_temperature;BMP_pressure;BME280_temperature;BME280_humidity;BME280_pressure;Samples;Min_cycle;Max_cycle;Signal;HPM_P1;HPM_P2
2023/08/06 00:01:50;;;;;;;18.33;11.80;;;;;;;24.48;100.00;100900.16;5036878;28;20480;-75
2023/08/06 00:04:15;;;;;;;16.48;12.13;;;;;;;24.40;100.00;100877.28;5053926;28;20037;-75
2023/08/06 00:06:41;;;;;;;16.15;12.52;;;;;;;24.56;100.00;100903.84;5054451;28;20033;-75
2023/08/06 00:09:06;;;;;;;17.90;12.55;;;;;;;24.79;100.00;100894.44;5053780;28;20037;-75
2023/08/06 00:11:32;;;;;;;17.90;12.13;;;;;;;24.93;100.00;100882.09;5055129;28;20033;-75
2023/08/06 00:13:57;;;;;;;16.83;11.90;;;;;;;24.68;100.00;100844.94;5054360;28;20096;-75
2023/08/06 00:16:23;;;;;;;16.00;12.82;;;;;;;24.23;100.00;100757.22;5055065;28;20036;-75
2023/08/06 00:18:48;;;;;;;14.85;12.07;;;;;;;24.60;100.00;100831.66;5037179;28;20037;-75
2023/08/06 00:21:14;;;;;;;16.50;12.73;;;;;;;24.40;100.00;100799.28;5054919;28;20499;-74
2023/08/06 00:23:40;;;;;;;15.80;12.07;;;;;;;24.37;100.00;100757.06;5054304;28;20044;-74
2023/08/06 00:26:05;;;;;;;12.95;11.63;;;;;;;24.38;100.00;100784.72;5054657;28;20116;-75
2023/08/06 00:28:31;;;;;;;16.80;13.02;;;;;;;24.71;100.00;100823.88;5054059;28;20587;-75
2023/08/06 00:30:56;;;;;;;17.05;12.13;;;;;;;24.41;100.00;100756.72;5053882;28;20064;-76
2023/08/06 00:33:22;;;;;;;14.90;12.35;;;;;;;24.41;100.00;100743.72;5054303;28;20036;-75
2023/08/06 00:35:48;;;;;;;17.13;12.88;;;;;;;24.65;100.00;100791.34;5053406;28;20060;-74
2023/08/06 00:38:13;;;;;;;18.55;12.65;;;;;;;24.67;100.00;100767.81;5053652;28;20029;-75
2023/08/06 00:40:39;;;;;;;18.50;12.98;;;;;;;24.22;100.00;100670.63;5053454;28;20079;-75
2023/08/06 00:43:04;;;;;;;17.92;12.88;;;;;;;24.39;100.00;100649.41;5053659;28;20056;-75
2023/08/06 00:45:33;;;;;;;17.52;12.95;;;;;;;24.46;100.00;100585.59;5053761;28;20028;-76
2023/08/06 00:47:59;;;;;;;17.90;13.88;;;;;;;24.36;100.00;100498.84;5053421;28;20041;-76
2023/08/06 00:50:25;;;;;;;17.65;13.40;;;;;;;24.27;100.00;100394.72;5053414;28;20086;-74
2023/08/06 00:52:51;;;;;;;15.48;13.15;;;;;;;24.10;100.00;100292.09;5053491;28;20029;-76
2023/08/06 00:55:17;;;;;;;16.80;13.60;;;;;;;24.30;100.00;100241.94;5053518;28;20111;-75
2023/08/06 00:57:42;;;;;;;17.60;14.32;;;;;;;23.96;100.00;100110.44;5035857;28;20122;-76
2023/08/06 01:00:08;;;;;;;20.02;13.80;;;;;;;24.28;100.00;100066.25;5053649;28;20032;-76
2023/08/06 01:02:34;;;;;;;17.80;14.70;;;;;;;23.99;100.00;99931.75;5052963;28;20025;-76
2023/08/06 01:04:59;;;;;;;16.30;14.60;;;;;;;24.24;100.00;99903.72;5035791;28;20403;-76
2023/08/06 01:07:27;;;;;;;19.50;14.18;;;;;;;24.36;100.00;99845.50;5053933;28;20029;-76
2023/08/06 01:10:02;;;;;;;21.08;14.90;;;;;;;24.42;100.00;99765.19;5035365;28;20060;-75
2023/08/06 01:12:48;;;;;;;20.60;14.73;;;;;;;24.02;100.00;99656.16;5053702;28;20112;-76
2023/08/06 01:15:27;;;;;;;16.25;14.52;;;;;;;24.26;100.00;99657.50;5052999;28;20518;-76
2023/08/06 01:17:53;;;;;;;16.67;14.65;;;;;;;24.22;100.00;99620.59;5053039;28;20106;-75
2023/08/06 01:20:19;;;;;;;20.75;15.10;;;;;;;24.30;100.00;99584.34;5053582;28;20087;-75
2023/08/06 01:22:44;;;;;;;22.48;15.05;;;;;;;24.30;100.00;99531.53;5052942;28;20029;-75
2023/08/06 01:25:10;;;;;;;18.98;13.48;;;;;;;24.00;100.00;99457.19;5053032;28;20028;-74
2023/08/06 01:27:43;;;;;;;15.68;13.80;;;;;;;24.30;100.00;99424.97;5052757;28;20025;-76
2023/08/06 01:30:25;;;;;;;21.45;14.75;;;;;;;24.17;100.00;99352.53;5052793;28;20392;-75
2023/08/06 01:32:54;;;;;;;23.65;14.77;;;;;;;24.22;100.00;99233.41;5034391;28;20033;-75
2023/08/06 01:35:21;;;;;;;19.00;15.45;;;;;;;23.66;100.00;99118.50;5034894;28;20040;-75
2023/08/06 01:37:48;;;;;;;19.35;14.60;;;;;;;23.69;100.00;98942.50;5052486;28;20025;-75
2023/08/06 01:40:13;;;;;;;18.02;15.45;;;;;;;23.97;100.00;98930.19;5034546;28;20033;-76
2023/08/06 01:42:40;;;;;;;17.90;14.00;;;;;;;23.86;100.00;98813.63;5035036;28;20392;-75
2023/08/06 01:45:07;;;;;;;20.48;14.70;;;;;;;24.10;100.00;98837.13;5052811;28;20116;-76
2023/08/06 01:47:32;;;;;;;19.35;16.25;;;;;;;24.06;100.00;98797.69;5052175;28;20028;-75
2023/08/06 01:49:57;;;;;;;20.08;15.63;;;;;;;23.92;100.00;98745.47;5052934;28;20041;-75
2023/08/06 01:52:23;;;;;;;17.88;14.95;;;;;;;23.73;100.00;98582.19;5053017;28;20025;-75
2023/08/06 01:54:48;;;;;;;18.38;14.43;;;;;;;23.89;100.00;98520.69;5052488;28;20095;-75
2023/08/06 01:57:13;;;;;;;19.92;14.93;;;;;;;23.73;100.00;98528.47;5052230;28;20123;-76
2023/08/06 01:59:39;;;;;;;22.88;15.60;;;;;;;23.85;100.00;98527.19;5035077;28;20029;-76
2023/08/06 02:02:04;;;;;;;18.00;15.93;;;;;;;23.60;100.00;98450.28;5052561;28;20032;-75
2023/08/06 02:04:30;;;;;;;19.55;16.40;;;;;;;23.84;100.00;98486.63;5052440;28;20028;-76
2023/08/06 02:06:55;;;;;;;18.00;16.05;;;;;;;23.80;100.00;98487.94;5052372;28;20036;-75
2023/08/06 02:09:21;;;;;;;18.98;15.88;;;;;;;23.82;100.00;98472.19;5052526;28;20040;-76
2023/08/06 02:11:46;;;;;;;18.60;16.20;;;;;;;23.61;100.00;98456.31;5052499;28;20033;-75
2023/08/06 02:14:11;;;;;;;18.17;14.95;;;;;;;23.69;100.00;98394.78;5052183;28;20056;-77
2023/08/06 02:16:37;;;;;;;21.10;16.42;;;;;;;23.52;100.00;98403.59;5034833;28;20102;-76
2023/08/06 02:19:03;;;;;;;19.75;15.45;;;;;;;23.68;100.00;98389.78;5052033;28;20029;-75
2023/08/06 02:21:28;;;;;;;19.33;15.65;;;;;;;24.04;100.00;98468.94;5052179;28;20090;-76
2023/08/06 02:23:53;;;;;;;21.05;16.77;;;;;;;23.45;100.00;98488.25;5051334;28;20534;-74
2023/08/06 02:26:19;;;;;;;20.30;16.88;;;;;;;23.71;100.00;98499.28;5051645;28;20032;-75
2023/08/06 02:28:44;;;;;;;19.60;16.50;;;;;;;23.38;100.00;98456.13;5051830;28;20021;-75
2023/08/06 02:31:10;;;;;;;20.92;16.63;;;;;;;23.54;100.00;98510.63;5051579;28;20021;-74
2023/08/06 02:33:35;;;;;;;20.17;16.73;;;;;;;23.50;100.00;98465.22;5051173;28;20067;-73
2023/08/06 02:36:03;;;;;;;18.02;15.02;;;;;;;23.82;100.00;98516.31;5051733;28;20427;-75
2023/08/06 02:38:29;;;;;;;19.70;15.32;;;;;;;23.60;100.00;98497.00;5051660;28;20115;-74
2023/08/06 02:40:54;;;;;;;19.10;17.10;;;;;;;23.35;100.00;98504.94;5051687;28;20502;-74
2023/08/06 02:43:20;;;;;;;19.73;16.25;;;;;;;23.48;100.00;98564.94;5051291;28;20021;-74
2023/08/06 02:45:45;;;;;;;19.95;16.20;;;;;;;23.65;100.00;98567.41;5051511;28;20032;-74
2023/08/06 02:48:10;;;;;;;20.50;15.98;;;;;;;23.62;100.00;98569.50;5051090;28;20064;-75
2023/08/06 02:50:40;;;;;;;22.25;16.33;;;;;;;23.83;100.00;98565.47;5051843;28;20120;-75
2023/08/06 02:53:06;;;;;;;18.10;16.17;;;;;;;23.68;100.00;98592.22;5033915;28;20032;-75
2023/08/06 02:55:32;;;;;;;21.52;16.88;;;;;;;23.62;100.00;98617.03;5051434;28;20086;-75
2023/08/06 02:57:57;;;;;;;19.13;16.95;;;;;;;23.03;100.00;98586.00;5033485;28;20443;-75
2023/08/06 03:00:23;;;;;;;20.38;17.80;;;;;;;23.28;100.00;98658.56;5053250;28;20045;-73
2023/08/06 03:02:49;;;;;;;19.98;17.58;;;;;;;22.88;100.00;98556.44;5053399;28;20037;-74
2023/08/06 03:05:14;;;;;;;22.98;17.90;;;;;;;23.15;100.00;98608.94;5056065;28;20154;-75
2023/08/06 03:07:40;;;;;;;20.52;18.33;;;;;;;23.08;100.00;98571.59;5056398;28;20434;-75
2023/08/06 03:10:06;;;;;;;20.73;18.13;;;;;;;23.19;100.00;98617.19;5055172;28;20480;-75
2023/08/06 03:12:31;;;;;;;23.35;19.05;;;;;;;23.35;100.00;98686.53;5054420;28;20033;-75
2023/08/06 03:14:57;;;;;;;23.10;19.33;;;;;;;22.99;100.00;98639.13;5054468;28;20608;-73
2023/08/06 03:17:22;;;;;;;21.70;19.40;;;;;;;23.32;100.00;98712.75;5054553;28;20032;-73
2023/08/06 03:19:47;;;;;;;22.50;19.25;;;;;;;23.31;100.00;98700.75;5054694;28;20024;-72
2023/08/06 03:22:13;;;;;;;25.15;19.80;;;;;;;23.32;100.00;98738.69;5036815;28;20033;-74
2023/08/06 03:24:38;;;;;;;20.35;18.15;;;;;;;23.20;100.00;98704.41;5036741;28;20537;-74
2023/08/06 03:27:04;;;;;;;23.83;19.33;;;;;;;23.17;100.00;98720.28;5036401;28;20087;-73
2023/08/06 03:29:29;;;;;;;22.17;18.77;;;;;;;23.41;100.00;98800.88;5053673;28;20115;-74
2023/08/06 03:31:55;;;;;;;22.60;18.70;;;;;;;23.11;100.00;98752.00;5054073;28;20047;-74
2023/08/06 03:34:20;;;;;;;20.10;17.63;;;;;;;23.60;100.00;98824.03;5054201;28;20044;-74
2023/08/06 03:36:45;;;;;;;18.65;16.70;;;;;;;23.39;100.00;98825.34;5054354;28;20021;-74
2023/08/06 03:39:11;;;;;;;23.88;17.73;;;;;;;23.60;100.00;98834.41;5054555;28;20028;-75
2023/08/06 03:41:36;;;;;;;20.05;17.98;;;;;;;23.58;100.00;98844.13;5054701;28;20479;-75
2023/08/06 03:44:03;;;;;;;20.45;18.38;;;;;;;23.52;100.00;98862.09;5054381;28;20060;-75
2023/08/06 03:46:29;;;;;;;21.65;17.48;;;;;;;23.56;100.00;98861.63;5054302;28;20083;-75
2023/08/06 03:48:54;;;;;;;19.65;17.48;;;;;;;23.84;100.00;98875.28;5036868;28;20024;-75
2023/08/06 03:51:20;;;;;;;20.50;16.83;;;;;;;23.90;100.00;98877.25;5054877;28;20033;-75
2023/08/06 03:53:45;;;;;;;18.35;16.25;;;;;;;23.65;100.00;98850.31;5054517;28;20025;-74
2023/08/06 03:56:11;;;;;;;21.80;17.70;;;;;;;23.72;100.00;98907.66;5054020;28;20136;-75
2023/08/06 03:58:36;;;;;;;19.45;16.98;;;;;;;23.77;100.00;98926.97;5053902;28;20041;-76
2023/08/06 04:01:02;;;;;;;21.23;17.08;;;;;;;23.77;100.00;98931.38;5053780;28;20037;-75
2023/08/06 04:03:28;;;;;;;19.67;17.58;;;;;;;23.70;100.00;98875.81;5036274;28;20396;-75
2023/08/06 04:05:54;;;;;;;18.52;16.63;;;;;;;23.87;100.00;98932.06;5036013;28;20179;-74
2023/08/06 04:08:20;;;;;;;21.17;18.50;;;;;;;23.81;100.00;98927.53;5053715;28;20033;-75
2023/08/06 04:10:45;;;;;;;22.10;18.45;;;;;;;23.79;100.00;98974.38;5035575;28;20454;-75
2023/08/06 04:13:10;;;;;;;19.67;17.65;;;;;;;23.48;100.00;98921.25;5053923;28;20430;-75
2023/08/06 04:15:36;;;;;;;24.77;18.63;;;;;;;23.69;100.00;98994.41;5053991;28;20438;-75
2023/08/06 04:18:01;;;;;;;22.67;19.30;;;;;;;23.89;100.00;98982.06;5053887;28;20029;-75
2023/08/06 04:20:27;;;;;;;20.70;17.30;;;;;;;23.95;100.00;98984.91;5053872;28;20064;-76
2023/08/06 04:22:54;;;;;;;23.40;17.80;;;;;;;24.04;100.00;99011.78;5053751;28;20484;-76
2023/08/06 04:25:20;;;;;;;20.05;17.90;;;;;;;23.55;100.00;98948.22;5054098;28;20033;-76
2023/08/06 04:27:49;;;;;;;22.65;16.88;;;;;;;24.27;100.00;99022.47;5036146;28;20025;-77
2023/08/06 04:30:15;;;;;;;23.17;18.48;;;;;;;23.70;100.00;98985.69;5047666;28;20116;-75
2023/08/06 04:32:40;;;;;;;19.48;17.33;;;;;;;24.17;100.00;99027.78;5053678;28;20108;-75
2023/08/06 04:35:06;;;;;;;19.30;17.30;;;;;;;24.19;100.00;99038.00;5035748;28;20037;-76
2023/08/06 04:37:31;;;;;;;20.70;17.80;;;;;;;23.99;100.00;99027.78;5052946;28;20461;-75
2023/08/06 04:39:57;;;;;;;19.90;17.90;;;;;;;24.27;100.00;99033.69;5053260;28;20036;-76
2023/08/06 04:42:22;;;;;;;18.30;14.38;;;;;;;24.87;100.00;99055.34;5052407;28;20119;-71
2023/08/06 04:44:48;;;;;;;19.02;17.13;;;;;;;24.77;100.00;99091.06;5052271;28;20045;-72
2023/08/06 04:47:13;;;;;;;26.33;19.08;;;;;;;24.20;100.00;99052.63;5035098;28;20028;-76
2023/08/06 04:49:38;;;;;;;21.10;18.80;;;;;;;24.63;100.00;99135.78;5035405;28;20506;-74
2023/08/06 04:52:04;;;;;;;27.17;21.10;;;;;;;24.49;100.00;99084.34;5035880;28;20033;-76
2023/08/06 04:54:30;;;;;;;25.52;20.48;;;;;;;24.40;100.00;99070.50;5052318;28;20068;-75
2023/08/06 04:56:55;;;;;;;29.27;20.75;;;;;;;25.11;100.00;99195.13;5053225;28;20403;-75
2023/08/06 04:59:22;;;;;;;20.15;17.75;;;;;;;24.96;100.00;99184.47;5052603;28;20041;-74
2023/08/06 05:01:47;;;;;;;25.45;18.23;;;;;;;24.84;100.00;99263.72;5053179;28;20546;-75
2023/08/06 05:04:13;;;;;;;26.80;20.17;;;;;;;24.74;100.00;99232.59;5052639;28;20035;-75
2023/08/06 05:06:38;;;;;;;18.50;16.33;;;;;;;25.55;100.00;99285.22;5034631;28;20036;-75
2023/08/06 05:09:05;;;;;;;21.10;16.38;;;;;;;25.25;100.00;99290.84;5052863;28;20116;-74
2023/08/06 05:11:30;;;;;;;18.52;14.65;;;;;;;25.18;100.00;99308.03;5052240;28;20114;-74
2023/08/06 05:13:55;;;;;;;17.48;14.73;;;;;;;25.71;100.00;99386.91;5052714;28;20451;-71
2023/08/06 05:16:21;;;;;;;22.23;14.70;;;;;;;25.42;100.00;99335.09;5052564;28;20029;-74
2023/08/06 05:18:46;;;;;;;16.35;13.93;;;;;;;25.24;100.00;99377.69;5034203;28;20064;-76
2023/08/06 05:21:11;;;;;;;17.27;14.00;;;;;;;25.52;100.00;99450.38;5052102;28;20029;-74
2023/08/06 05:23:37;;;;;;;15.45;13.60;;;;;;;25.37;100.00;99422.41;5051307;28;20513;-74
2023/08/06 05:26:02;;;;;;;14.82;13.32;;;;;;;25.09;100.00;99411.25;5051978;28;20480;-76
2023/08/06 05:28:28;;;;;;;18.27;12.85;;;;;;;26.16;100.00;99491.75;5052101;28;20484;-75
2023/08/06 05:30:53;;;;;;;18.55;13.32;;;;;;;25.68;100.00;99538.25;5052207;28;20391;-75
2023/08/06 05:33:19;;;;;;;16.25;12.85;;;;;;;26.23;100.00;99520.63;5051909;28;20435;-74
2023/08/06 05:35:44;;;;;;;18.00;12.50;;;;;;;25.88;100.00;99536.31;5051859;28;20487;-75
2023/08/06 05:38:09;;;;;;;15.10;12.43;;;;;;;25.80;100.00;99555.31;5052178;28;20032;-75
2023/08/06 05:40:35;;;;;;;16.40;12.20;;;;;;;25.85;100.00;99584.31;5051695;28;20107;-75
2023/08/06 05:43:00;;;;;;;15.20;12.60;;;;;;;26.04;100.00;99578.13;5051965;28;20138;-75
2023/08/06 05:45:26;;;;;;;14.82;11.50;;;;;;;26.42;100.00;99674.28;5051389;28;20545;-74
2023/08/06 05:47:53;;;;;;;17.17;11.57;;;;;;;25.79;100.00;99643.06;5033876;28;20115;-74
2023/08/06 05:50:19;;;;;;;16.55;11.65;;;;;;;26.40;100.00;99687.47;5051884;28;20045;-75
2023/08/06 05:52:44;;;;;;;15.95;11.27;;;;;;;26.53;100.00;99739.25;5051599;28;20498;-74
2023/08/06 05:55:10;;;;;;;14.68;11.50;;;;;;;27.28;100.00;99770.00;5051606;28;20025;-75
2023/08/06 05:57:35;;;;;;;15.23;11.75;;;;;;;26.56;100.00;99785.91;5051663;28;20454;-74
2023/08/06 06:00:02;;;;;;;13.10;11.40;;;;;;;27.01;100.00;99817.16;5033482;28;20435;-75
2023/08/06 06:02:28;;;;;;;13.55;11.77;;;;;;;27.15;100.00;99840.13;5051545;28;20021;-73
2023/08/06 06:04:53;;;;;;;15.27;11.32;;;;;;;27.04;100.00;99840.38;5051714;28;20056;-74
2023/08/06 06:07:20;;;;;;;16.23;11.82;;;;;;;27.27;100.00;99858.00;5051426;28;20124;-76
2023/08/06 06:09:45;;;;;;;14.70;10.73;;;;;;;27.29;100.00;99816.88;5051099;28;20043;-75
2023/08/06 06:12:11;;;;;;;13.63;10.88;;;;;;;28.04;100.00;99859.81;5051363;28;20021;-73
2023/08/06 06:14:36;;;;;;;14.13;11.18;;;;;;;27.68;100.00;99863.50;5051335;28;20029;-76
2023/08/06 06:17:01;;;;;;;14.35;10.95;;;;;;;27.97;100.00;99825.63;5051471;28;20040;-74
2023/08/06 06:19:27;;;;;;;14.32;10.85;;;;;;;27.99;100.00;99831.53;5033350;28;20492;-74
2023/08/06 06:21:53;;;;;;;11.23;10.02;;;;;;;28.19;100.00;99859.06;5051329;28;20028;-74
2023/08/06 06:24:18;;;;;;;13.85;9.82;;;;;;;28.51;100.00;99867.97;5052202;28;20543;-75
2023/08/06 06:26:44;;;;;;;14.40;10.35;;;;;;;28.70;100.00;99842.38;5056529;28;20037;-73
2023/08/06 06:29:09;;;;;;;12.43;10.65;;;;;;;29.15;100.00;99810.50;5052632;28;20032;-73
2023/08/06 06:31:34;;;;;;;12.35;9.20;;;;;;;29.53;100.00;99764.41;5051327;28;20024;-73
2023/08/06 06:34:00;;;;;;;11.13;9.05;;;;;;;28.75;100.00;99680.41;5051063;28;20481;-75
2023/08/06 06:36:26;;;;;;;12.10;8.93;;;;;;;29.04;100.00;99717.34;5033284;28;20028;-74
2023/08/06 06:38:51;;;;;;;16.20;10.50;;;;;;;29.47;100.00;99618.31;5051189;28;20480;-73
2023/08/06 06:41:17;;;;;;;13.18;8.60;;;;;;;29.70;100.00;99655.84;5051253;28;20111;-74
2023/08/06 06:43:42;;;;;;;12.27;9.23;;;;;;;29.02;100.00;99635.50;5050744;28;20037;-74
2023/08/06 06:46:08;;;;;;;12.35;8.43;;;;;;;28.92;100.00;99545.06;5051178;28;20099;-75
2023/08/06 06:48:33;;;;;;;12.73;9.25;;;;;;;28.35;100.00;99591.44;5051910;28;20028;-76
2023/08/06 06:50:59;;;;;;;13.25;9.05;;;;;;;28.73;100.00;99490.47;5033877;28;20037;-75
2023/08/06 06:53:28;;;;;;;13.15;8.93;;;;;;;28.83;100.00;99512.84;5051476;28;20060;-75
2023/08/06 06:55:54;;;;;;;12.50;8.43;;;;;;;30.24;100.00;99521.03;5051231;28;20507;-75
2023/08/06 06:58:19;;;;;;;13.10;9.70;;;;;;;29.94;100.00;99480.00;5051695;28;20059;-75
2023/08/06 07:00:47;;;;;;;14.05;8.63;;;;;;;29.08;100.00;99482.91;5052904;28;20484;-77
2023/08/06 07:03:12;;;;;;;10.63;8.43;;;;;;;29.10;100.00;99423.31;5051912;28;20029;-76
2023/08/06 07:05:37;;;;;;;10.32;8.82;;;;;;;28.58;100.00;99466.81;5051178;28;20415;-76
2023/08/06 07:08:03;;;;;;;11.43;8.73;;;;;;;28.32;100.00;99434.84;5051463;28;20029;-75
2023/08/06 07:10:28;;;;;;;11.63;8.80;;;;;;;28.50;100.00;99484.31;5033459;28;20029;-76
2023/08/06 07:12:54;;;;;;;11.93;9.15;;;;;;;27.86;100.00;99406.81;5033277;28;20075;-76
2023/08/06 07:15:19;;;;;;;10.95;8.75;;;;;;;28.54;100.00;99460.28;5051168;28;20099;-75
2023/08/06 07:17:45;;;;;;;14.35;9.52;;;;;;;28.26;100.00;99461.66;5033358;28;20454;-76
2023/08/06 07:20:11;;;;;;;14.88;9.30;;;;;;;28.13;100.00;99419.53;5051755;28;20029;-76
2023/08/06 07:22:36;;;;;;;12.85;9.35;;;;;;;28.47;100.00;99409.59;5050578;28;20508;-74
2023/08/06 07:25:02;;;;;;;12.13;9.57;;;;;;;28.33;100.00;99397.22;5050954;28;20025;-75
2023/08/06 07:27:27;;;;;;;11.80;9.48;;;;;;;28.74;100.00;99406.53;5033083;28;20579;-75
2023/08/06 07:29:53;;;;;;;14.20;9.43;;;;;;;28.69;100.00;99387.91;5050843;28;20037;-74
2023/08/06 07:32:18;;;;;;;13.45;9.55;;;;;;;28.76;100.00;99428.09;5050420;28;20041;-74
2023/08/06 07:34:44;;;;;;;10.85;9.30;;;;;;;28.62;100.00;99392.22;5051018;28;20033;-75
2023/08/06 07:37:09;;;;;;;11.02;9.40;;;;;;;29.02;100.00;99422.53;5050606;28;20025;-74
2023/08/06 07:39:35;;;;;;;13.43;10.02;;;;;;;28.02;100.00;99368.44;5032834;28;20419;-74
2023/08/06 07:42:02;;;;;;;13.35;9.73;;;;;;;27.75;100.00;99371.41;5032466;28;20033;-74
2023/08/06 07:44:27;;;;;;;13.00;10.70;;;;;;;28.32;100.00;99428.78;5032768;28;20068;-74
2023/08/06 07:46:53;;;;;;;10.88;9.82;;;;;;;28.01;100.00;99366.78;5053705;28;20072;-74
2023/08/06 07:49:18;;;;;;;12.98;9.88;;;;;;;28.43;100.00;99424.00;5036195;28;20506;-74
2023/08/06 07:51:43;;;;;;;14.05;9.82;;;;;;;28.05;100.00;99388.16;5054379;28;20033;-74
2023/08/06 07:54:09;;;;;;;12.63;9.93;;;;;;;28.29;100.00;99420.28;5035850;28;20040;-74
2023/08/06 07:56:36;;;;;;;12.52;9.85;;;;;;;28.28;100.00;99373.38;5054333;28;20491;-74
2023/08/06 07:59:02;;;;;;;11.00;9.77;;;;;;;27.96;100.00;99366.50;5054417;28;20079;-74
2023/08/06 08:01:27;;;;;;;11.65;9.93;;;;;;;28.05;100.00;99341.09;5054337;28;20029;-75
2023/08/06 08:03:52;;;;;;;12.30;9.85;;;;;;;27.89;100.00;99331.50;5053748;28;20091;-74
2023/08/06 08:06:18;;;;;;;15.68;10.45;;;;;;;27.43;100.00;99280.84;5053585;28;20603;-75
2023/08/06 08:08:43;;;;;;;12.18;10.25;;;;;;;27.77;100.00;99332.84;5053814;28;20036;-74
2023/08/06 08:11:09;;;;;;;12.02;9.55;;;;;;;27.42;100.00;99255.72;5053512;28;20032;-75
2023/08/06 08:13:34;;;;;;;11.27;9.82;;;;;;;27.62;100.00;99276.22;5036040;28;20079;-75
2023/08/06 08:16:01;;;;;;;13.90;10.23;;;;;;;28.02;100.00;99352.75;5053306;28;20120;-75
2023/08/06 08:18:27;;;;;;;10.85;9.75;;;;;;;27.76;100.00;99351.31;5053601;28;20083;-75
2023/08/06 08:20:53;;;;;;;11.40;9.80;;;;;;;27.83;100.00;99389.69;5053835;28;20033;-75
2023/08/06 08:23:18;;;;;;;10.52;9.50;;;;;;;27.94;100.00;99418.09;5054117;28;20115;-75
2023/08/06 08:25:44;;;;;;;12.90;9.88;;;;;;;27.55;100.00;99371.94;5053114;28;20119;-74
2023/08/06 08:28:09;;;;;;;13.15;10.27;;;;;;;27.42;100.00;99328.03;5053469;28;20025;-75
2023/08/06 08:30:35;;;;;;;20.45;10.52;;;;;;;27.84;100.00;99429.69;5054156;28;20450;-76
2023/08/06 08:33:00;;;;;;;24.05;12.40;;;;;;;26.98;100.00;99425.94;5053672;28;20036;-75
2023/08/06 08:35:25;;;;;;;24.00;14.68;;;;;;;26.54;100.00;99490.50;5053501;28;20040;-75
2023/08/06 08:37:51;;;;;;;21.52;15.35;;;;;;;25.92;100.00;99553.28;5035425;28;20029;-75
2023/08/06 08:40:17;;;;;;;21.73;16.73;;;;;;;25.54;100.00;99560.44;5052865;28;20104;-74
2023/08/06 08:42:43;;;;;;;29.75;18.40;;;;;;;24.93;100.00;99601.03;5035216;28;20073;-75
2023/08/06 08:45:22;;;;;;;25.30;18.13;;;;;;;24.84;100.00;99653.88;5053489;28;20029;-75
2023/08/06 08:47:47;;;;;;;29.65;19.75;;;;;;;24.53;100.00;99649.81;5054185;28;20067;-75
2023/08/06 08:50:14;;;;;;;28.10;18.33;;;;;;;24.64;100.00;99631.47;5053062;28;20079;-74
2023/08/06 08:52:42;;;;;;;21.30;15.43;;;;;;;24.29;100.00;99566.25;5052831;28;20032;-75
2023/08/06 08:55:08;;;;;;;17.10;13.43;;;;;;;24.14;100.00;99481.94;5035613;28;20055;-73
2023/08/06 08:57:34;;;;;;;20.23;15.10;;;;;;;24.50;100.00;99442.13;5052979;28;20416;-74
2023/08/06 08:59:59;;;;;;;19.67;16.63;;;;;;;24.72;100.00;99346.34;5053165;28;20476;-75
2023/08/06 09:02:29;;;;;;;19.20;16.45;;;;;;;24.38;100.00;99162.56;5053264;28;20052;-75
2023/08/06 09:04:59;;;;;;;11.95;10.65;;;;;;;24.26;100.00;99138.59;5035584;28;20033;-74
2023/08/06 09:07:26;;;;;;;12.07;9.10;;;;;;;24.28;100.00;99029.31;5035518;28;20025;-76
2023/08/06 09:09:52;;;;;;;15.40;9.18;;;;;;;24.39;100.00;99086.22;5051253;28;20033;-75
2023/08/06 09:12:18;;;;;;;7.05;6.35;;;;;;;23.77;100.00;99032.63;5052499;28;20404;-74
2023/08/06 09:14:43;;;;;;;7.25;6.10;;;;;;;23.83;100.00;99037.22;5053866;28;20021;-76
2023/08/06 09:17:13;;;;;;;10.65;7.25;;;;;;;23.97;100.00;99076.47;5053127;28;20036;-76
2023/08/06 09:19:45;;;;;;;8.68;7.85;;;;;;;24.12;100.00;99001.44;5053601;28;20086;-75
2023/08/06 09:22:13;;;;;;;9.00;8.10;;;;;;;24.05;100.00;99028.97;5053650;28;20025;-76
2023/08/06 09:24:42;;;;;;;9.65;8.63;;;;;;;24.20;100.00;99091.63;5053775;28;20043;-75
2023/08/06 09:27:14;;;;;;;8.13;6.95;;;;;;;23.94;100.00;99097.56;5050674;28;20397;-76
2023/08/06 09:29:41;;;;;;;8.20;6.35;;;;;;;24.20;100.00;99097.63;5035955;28;20535;-76
2023/08/06 09:32:07;;;;;;;8.57;7.03;;;;;;;24.16;100.00;99100.66;5053754;28;20024;-77
2023/08/06 09:34:32;;;;;;;7.40;6.70;;;;;;;24.13;100.00;99055.03;5053221;28;20388;-76
2023/08/06 09:36:58;;;;;;;7.65;6.90;;;;;;;24.08;100.00;99101.44;5035454;28;20056;-76
2023/08/06 09:39:28;;;;;;;7.13;6.30;;;;;;;23.45;100.00;99111.00;5053264;28;20410;-78
2023/08/06 09:41:58;;;;;;;7.20;5.85;;;;;;;23.99;100.00;99216.56;5054954;28;20021;-76
2023/08/06 09:44:25;;;;;;;7.45;6.18;;;;;;;24.14;100.00;99240.31;5058211;28;20032;-76
2023/08/06 09:46:52;;;;;;;7.03;5.95;;;;;;;24.22;100.00;99202.22;5052372;28;20025;-75
2023/08/06 09:49:20;;;;;;;8.13;7.10;;;;;;;24.83;100.00;99262.09;5052057;28;20045;-75
2023/08/06 09:51:51;;;;;;;6.78;6.03;;;;;;;24.39;100.00;99258.59;5052686;28;20033;-75
2023/08/06 09:54:18;;;;;;;6.15;5.55;;;;;;;24.21;100.00;99296.72;5049490;28;20047;-75
2023/08/06 09:56:44;;;;;;;6.75;5.57;;;;;;;24.47;100.00;99257.84;5052503;28;20049;-76
2023/08/06 09:59:11;;;;;;;6.55;5.78;;;;;;;23.93;100.00;99266.50;5051875;28;20037;-75
2023/08/06 10:01:37;;;;;;;7.72;6.50;;;;;;;24.97;100.00;99352.63;5034186;28;20411;-75
2023/08/06 10:04:04;;;;;;;10.45;9.43;;;;;;;24.56;100.00;99416.34;5051963;28;20351;-75
2023/08/06 10:06:33;;;;;;;13.40;11.07;;;;;;;24.85;100.00;99450.88;5052514;28;20033;-77
2023/08/06 10:08:59;;;;;;;14.10;12.43;;;;;;;24.94;100.00;99410.13;5052210;28;20025;-76
2023/08/06 10:11:25;;;;;;;16.13;13.30;;;;;;;25.50;100.00;99487.97;5052382;28;20399;-76
2023/08/06 10:13:55;;;;;;;14.88;13.25;;;;;;;24.97;100.00;99480.09;5052414;28;20025;-76
2023/08/06 10:16:22;;;;;;;14.55;8.25;;;;;;;24.85;100.00;99587.91;5051813;28;20029;-76
2023/08/06 10:18:49;;;;;;;8.93;5.88;;;;;;;24.89;100.00;99618.72;5051956;28;20033;-73
2023/08/06 10:21:15;;;;;;;8.40;4.45;;;;;;;24.72;100.00;99634.19;5052359;28;20036;-75
2023/08/06 10:23:41;;;;;;;9.55;5.32;;;;;;;25.21;100.00;99659.94;5051897;28;20028;-75
2023/08/06 10:26:07;;;;;;;7.07;4.47;;;;;;;26.28;100.00;99661.78;5051123;28;20041;-76
2023/08/06 10:28:39;;;;;;;7.82;4.95;;;;;;;26.46;100.00;99637.31;5052802;28;20087;-77
2023/08/06 10:31:05;;;;;;;6.97;4.18;;;;;;;26.88;100.00;99700.09;5034080;28;20036;-77
2023/08/06 10:33:44;;;;;;;7.97;3.33;;;;;;;27.05;100.00;99724.50;5051855;28;20064;-76
2023/08/06 10:36:10;;;;;;;6.90;3.75;;;;;;;27.71;100.00;99771.75;5051563;28;20071;-76
2023/08/06 10:38:46;;;;;;;6.18;3.80;;;;;;;27.60;100.00;99664.88;5051490;28;20044;-75
2023/08/06 10:41:22;;;;;;;4.55;3.47;;;;;;;27.62;100.00;99652.47;5033855;28;20404;-75
2023/08/06 10:43:48;;;;;;;7.10;3.50;;;;;;;28.54;100.00;99667.00;5051771;28;20028;-76
2023/08/06 10:46:27;;;;;;;5.43;3.92;;;;;;;27.65;100.00;99655.59;5051700;28;20036;-76
2023/08/06 10:48:52;;;;;;;6.45;3.50;;;;;;;27.95;100.00;99599.34;5051101;28;20059;-74
2023/08/06 10:51:18;;;;;;;6.00;3.50;;;;;;;28.04;100.00;99582.66;5051004;28;20115;-75
2023/08/06 10:53:45;;;;;;;5.97;3.17;;;;;;;27.59;100.00;99530.00;5051162;28;20036;-74
2023/08/06 10:56:15;;;;;;;5.20;3.40;;;;;;;28.47;100.00;99547.44;5050635;28;20057;-75
2023/08/06 10:58:41;;;;;;;5.93;3.70;;;;;;;28.82;100.00;99507.78;5051371;28;20052;-75
2023/08/06 11:01:06;;;;;;;4.75;3.75;;;;;;;28.66;100.00;99435.34;5050799;28;20423;-75
2023/08/06 11:03:33;;;;;;;4.25;3.55;;;;;;;29.25;100.00;99431.28;5050810;28;20033;-75
2023/08/06 11:05:59;;;;;;;4.95;3.67;;;;;;;28.23;100.00;99407.91;5051108;28;20033;-76
2023/08/06 11:08:29;;;;;;;6.90;3.95;;;;;;;29.15;100.00;99387.97;5033091;28;20473;-76